sensor_id;sensor_type;location;lat;lon;timestamp;P1;durP1;ratioP1;P2;durP2;ratioP2
12425;SDS011;6277;49.824;9.562;2023-03-01T00:00:54;9.15;;;6.00;;
12425;SDS011;6277;49.824;9.562;2023-03-01T00:03:25;10.55;;;6.05;;
12425;SDS011;6277;49.824;9.562;2023-03-01T00:05:50;9.88;;;6.40;;
12425;SDS011;6277;49.824;9.562;2023-03-01T00:08:16;9.27;;;6.35;;
12425;SDS011;6277;49.824;9.562;2023-03-01T00:10:41;9.63;;;6.43;;
12425;SDS011;6277;49.824;9.562;2023-03-01T00:13:07;8.95;;;6.28;;
12425;SDS011;6277;49.824;9.562;2023-03-01T00:15:32;8.50;;;5.78;;
12425;SDS011;6277;49.824;9.562;2023-03-01T00:17:59;8.75;;;6.13;;
12425;SDS011;6277;49.824;9.562;2023-03-01T00:20:25;8.98;;;5.95;;
12425;SDS011;6277;49.824;9.562;2023-03-01T00:22:50;8.45;;;5.68;;
12425;SDS011;6277;49.824;9.562;2023-03-01T00:25:16;10.50;;;5.72;;
12425;SDS011;6277;49.824;9.562;2023-03-01T00:27:41;13.20;;;6.45;;
12425;SDS011;6277;49.824;9.562;2023-03-01T00:30:07;11.30;;;6.18;;
12425;SDS011;6277;49.824;9.562;2023-03-01T00:32:33;8.65;;;5.82;;
12425;SDS011;6277;49.824;9.562;2023-03-01T00:34:59;9.73;;;6.15;;
12425;SDS011;6277;49.824;9.562;2023-03-01T00:37:24;8.52;;;5.53;;
12425;SDS011;6277;49.824;9.562;2023-03-01T00:39:50;9.63;;;6.05;;
12425;SDS011;6277;49.824;9.562;2023-03-01T00:42:15;10.27;;;5.88;;
12425;SDS011;6277;49.824;9.562;2023-03-01T00:44:41;9.40;;;6.22;;
12425;SDS011;6277;49.824;9.562;2023-03-01T00:47:07;9.55;;;6.22;;
12425;SDS011;6277;49.824;9.562;2023-03-01T00:49:33;9.65;;;6.53;;
12425;SDS011;6277;49.824;9.562;2023-03-01T00:51:59;10.77;;;6.50;;
12425;SDS011;6277;49.824;9.562;2023-03-01T00:54:24;8.45;;;6.05;;
12425;SDS011;6277;49.824;9.562;2023-03-01T00:56:50;8.45;;;5.85;;
12425;SDS011;6277;49.824;9.562;2023-03-01T00:59:15;7.47;;;5.38;;
12425;SDS011;6277;49.824;9.562;2023-03-01T01:01:41;9.45;;;5.93;;
12425;SDS011;6277;49.824;9.562;2023-03-01T01:04:08;10.73;;;6.22;;
12425;SDS011;6277;49.824;9.562;2023-03-01T01:06:37;9.50;;;6.07;;
12425;SDS011;6277;49.824;9.562;2023-03-01T01:09:05;8.95;;;5.80;;
12425;SDS011;6277;49.824;9.562;2023-03-01T01:11:32;10.27;;;6.18;;
12425;SDS011;6277;49.824;9.562;2023-03-01T01:13:58;10.07;;;6.45;;
12425;SDS011;6277;49.824;9.562;2023-03-01T01:16:24;10.57;;;6.53;;
12425;SDS011;6277;49.824;9.562;2023-03-01T01:18:51;8.40;;;6.35;;
12425;SDS011;6277;49.824;9.562;2023-03-01T01:21:18;9.90;;;6.53;;
12425;SDS011;6277;49.824;9.562;2023-03-01T01:23:46;7.80;;;5.88;;
12425;SDS011;6277;49.824;9.562;2023-03-01T01:26:17;10.20;;;6.43;;
12425;SDS011;6277;49.824;9.562;2023-03-01T01:28:44;9.68;;;6.00;;
12425;SDS011;6277;49.824;9.562;2023-03-01T01:31:10;11.13;;;6.18;;
12425;SDS011;6277;49.824;9.562;2023-03-01T01:33:36;8.45;;;6.05;;
12425;SDS011;6277;49.824;9.562;2023-03-01T01:36:02;10.25;;;6.28;;
12425;SDS011;6277;49.824;9.562;2023-03-01T01:38:29;9.93;;;6.50;;
12425;SDS011;6277;49.824;9.562;2023-03-01T01:40:55;9.48;;;6.18;;
12425;SDS011;6277;49.824;9.562;2023-03-01T01:43:22;9.93;;;6.68;;
12425;SDS011;6277;49.824;9.562;2023-03-01T01:45:59;10.35;;;5.97;;
12425;SDS011;6277;49.824;9.562;2023-03-01T01:48:30;9.15;;;6.05;;
12425;SDS011;6277;49.824;9.562;2023-03-01T01:51:13;8.55;;;5.88;;
12425;SDS011;6277;49.824;9.562;2023-03-01T01:53:43;9.15;;;6.20;;
12425;SDS011;6277;49.824;9.562;2023-03-01T01:56:12;9.40;;;6.38;;
12425;SDS011;6277;49.824;9.562;2023-03-01T01:58:40;9.77;;;6.18;;
12425;SDS011;6277;49.824;9.562;2023-03-01T02:01:08;9.68;;;6.22;;
12425;SDS011;6277;49.824;9.562;2023-03-01T02:03:34;9.30;;;6.38;;
12425;SDS011;6277;49.824;9.562;2023-03-01T02:06:10;10.77;;;6.63;;
12425;SDS011;6277;49.824;9.562;2023-03-01T02:08:47;9.50;;;6.28;;
12425;SDS011;6277;49.824;9.562;2023-03-01T02:11:15;9.48;;;6.00;;
12425;SDS011;6277;49.824;9.562;2023-03-01T02:13:43;10.07;;;6.38;;
12425;SDS011;6277;49.824;9.562;2023-03-01T02:16:09;8.85;;;6.55;;
12425;SDS011;6277;49.824;9.562;2023-03-01T02:18:38;10.35;;;6.50;;
12425;SDS011;6277;49.824;9.562;2023-03-01T02:23:37;10.55;;;7.03;;
12425;SDS011;6277;49.824;9.562;2023-03-01T02:26:07;10.15;;;6.68;;
12425;SDS011;6277;49.824;9.562;2023-03-01T02:28:40;10.95;;;7.32;;
12425;SDS011;6277;49.824;9.562;2023-03-01T02:31:08;9.93;;;6.43;;
12425;SDS011;6277;49.824;9.562;2023-03-01T02:33:54;10.18;;;6.97;;
12425;SDS011;6277;49.824;9.562;2023-03-01T02:37:08;10.48;;;7.20;;
12425;SDS011;6277;49.824;9.562;2023-03-01T02:39:47;10.52;;;6.57;;
12425;SDS011;6277;49.824;9.562;2023-03-01T02:42:08;9.35;;;6.47;;
12425;SDS011;6277;49.824;9.562;2023-03-01T02:44:37;9.20;;;6.82;;
12425;SDS011;6277;49.824;9.562;2023-03-01T02:47:02;11.90;;;7.50;;
12425;SDS011;6277;49.824;9.562;2023-03-01T02:49:30;10.32;;;6.90;;
12425;SDS011;6277;49.824;9.562;2023-03-01T02:57:33;10.35;;;6.55;;
12425;SDS011;6277;49.824;9.562;2023-03-01T03:00:05;9.32;;;6.53;;
12425;SDS011;6277;49.824;9.562;2023-03-01T03:02:34;10.90;;;6.90;;
12425;SDS011;6277;49.824;9.562;2023-03-01T03:05:07;10.30;;;7.00;;
12425;SDS011;6277;49.824;9.562;2023-03-01T03:07:36;10.98;;;6.57;;
12425;SDS011;6277;49.824;9.562;2023-03-01T03:10:03;9.52;;;6.57;;
12425;SDS011;6277;49.824;9.562;2023-03-01T03:12:30;10.00;;;6.70;;
12425;SDS011;6277;49.824;9.562;2023-03-01T03:14:56;11.68;;;7.35;;
12425;SDS011;6277;49.824;9.562;2023-03-01T03:17:22;9.88;;;6.50;;
12425;SDS011;6277;49.824;9.562;2023-03-01T03:19:47;12.00;;;7.07;;
12425;SDS011;6277;49.824;9.562;2023-03-01T03:22:13;10.07;;;6.65;;
12425;SDS011;6277;49.824;9.562;2023-03-01T03:24:39;10.32;;;7.28;;
12425;SDS011;6277;49.824;9.562;2023-03-01T03:27:04;11.07;;;7.28;;
12425;SDS011;6277;49.824;9.562;2023-03-01T03:29:31;11.73;;;7.65;;
12425;SDS011;6277;49.824;9.562;2023-03-01T03:31:57;12.60;;;7.75;;
12425;SDS011;6277;49.824;9.562;2023-03-01T03:34:22;9.95;;;7.05;;
12425;SDS011;6277;49.824;9.562;2023-03-01T03:36:49;11.57;;;7.38;;
12425;SDS011;6277;49.824;9.562;2023-03-01T03:41:48;9.77;;;6.50;;
12425;SDS011;6277;49.824;9.562;2023-03-01T03:44:13;9.75;;;6.03;;
12425;SDS011;6277;49.824;9.562;2023-03-01T03:46:39;11.52;;;7.32;;
12425;SDS011;6277;49.824;9.562;2023-03-01T03:49:04;8.77;;;6.25;;
12425;SDS011;6277;49.824;9.562;2023-03-01T03:51:30;10.57;;;6.32;;
12425;SDS011;6277;49.824;9.562;2023-03-01T03:53:55;9.35;;;6.47;;
12425;SDS011;6277;49.824;9.562;2023-03-01T03:56:21;10.32;;;6.40;;
12425;SDS011;6277;49.824;9.562;2023-03-01T03:58:50;9.20;;;6.20;;
12425;SDS011;6277;49.824;9.562;2023-03-01T04:01:16;9.02;;;6.43;;
12425;SDS011;6277;49.824;9.562;2023-03-01T04:03:42;9.48;;;6.22;;
12425;SDS011;6277;49.824;9.562;2023-03-01T04:06:11;9.68;;;6.47;;
12425;SDS011;6277;49.824;9.562;2023-03-01T04:08:37;10.95;;;6.75;;
12425;SDS011;6277;49.824;9.562;2023-03-01T04:11:03;10.82;;;7.00;;
12425;SDS011;6277;49.824;9.562;2023-03-01T04:13:49;11.40;;;7.05;;
12425;SDS011;6277;49.824;9.562;2023-03-01T04:16:16;9.30;;;6.25;;
12425;SDS011;6277;49.824;9.562;2023-03-01T04:18:43;12.38;;;7.45;;
12425;SDS011;6277;49.824;9.562;2023-03-01T04:21:09;9.43;;;6.97;;
12425;SDS011;6277;49.824;9.562;2023-03-01T04:23:54;11.40;;;7.18;;
12425;SDS011;6277;49.824;9.562;2023-03-01T04:26:20;9.73;;;6.65;;
12425;SDS011;6277;49.824;9.562;2023-03-01T04:28:45;11.05;;;7.03;;
12425;SDS011;6277;49.824;9.562;2023-03-01T04:31:14;11.25;;;6.80;;
12425;SDS011;6277;49.824;9.562;2023-03-01T04:33:44;10.52;;;7.05;;
12425;SDS011;6277;49.824;9.562;2023-03-01T04:36:12;10.35;;;7.05;;
12425;SDS011;6277;49.824;9.562;2023-03-01T04:38:39;9.52;;;6.47;;
12425;SDS011;6277;49.824;9.562;2023-03-01T04:41:06;10.00;;;6.72;;
12425;SDS011;6277;49.824;9.562;2023-03-01T04:43:34;10.60;;;7.05;;
12425;SDS011;6277;49.824;9.562;2023-03-01T04:46:00;9.73;;;6.78;;
12425;SDS011;6277;49.824;9.562;2023-03-01T04:48:27;10.85;;;6.97;;
12425;SDS011;6277;49.824;9.562;2023-03-01T04:50:53;11.35;;;7.07;;
12425;SDS011;6277;49.824;9.562;2023-03-01T04:53:19;10.18;;;7.13;;
12425;SDS011;6277;49.824;9.562;2023-03-01T04:55:44;11.95;;;7.00;;
12425;SDS011;6277;49.824;9.562;2023-03-01T04:58:10;10.40;;;6.85;;
12425;SDS011;6277;49.824;9.562;2023-03-01T05:00:35;11.25;;;7.18;;
12425;SDS011;6277;49.824;9.562;2023-03-01T05:03:01;11.85;;;7.10;;
12425;SDS011;6277;49.824;9.562;2023-03-01T05:05:28;10.93;;;7.28;;
12425;SDS011;6277;49.824;9.562;2023-03-01T05:07:59;10.05;;;6.93;;
12425;SDS011;6277;49.824;9.562;2023-03-01T05:10:27;11.65;;;7.07;;
12425;SDS011;6277;49.824;9.562;2023-03-01T05:12:54;10.63;;;6.70;;
12425;SDS011;6277;49.824;9.562;2023-03-01T05:15:22;10.85;;;7.00;;
12425;SDS011;6277;49.824;9.562;2023-03-01T05:17:50;11.15;;;6.85;;
12425;SDS011;6277;49.824;9.562;2023-03-01T05:20:16;10.07;;;6.68;;
12425;SDS011;6277;49.824;9.562;2023-03-01T05:22:42;9.77;;;6.82;;
12425;SDS011;6277;49.824;9.562;2023-03-01T05:25:08;14.05;;;8.98;;
12425;SDS011;6277;49.824;9.562;2023-03-01T05:27:34;15.57;;;9.98;;
12425;SDS011;6277;49.824;9.562;2023-03-01T05:30:00;16.55;;;9.00;;
12425;SDS011;6277;49.824;9.562;2023-03-01T05:32:38;17.17;;;9.52;;
12425;SDS011;6277;49.824;9.562;2023-03-01T05:35:08;18.17;;;10.55;;
12425;SDS011;6277;49.824;9.562;2023-03-01T05:37:38;22.17;;;11.35;;
12425;SDS011;6277;49.824;9.562;2023-03-01T05:40:08;16.00;;;9.52;;
12425;SDS011;6277;49.824;9.562;2023-03-01T05:42:40;14.82;;;8.50;;
12425;SDS011;6277;49.824;9.562;2023-03-01T05:45:27;11.50;;;7.78;;
12425;SDS011;6277;49.824;9.562;2023-03-01T05:47:53;14.63;;;7.72;;
12425;SDS011;6277;49.824;9.562;2023-03-01T05:50:20;11.55;;;7.63;;
12425;SDS011;6277;49.824;9.562;2023-03-01T05:52:51;11.45;;;7.05;;
12425;SDS011;6277;49.824;9.562;2023-03-01T05:55:28;10.52;;;7.30;;
12425;SDS011;6277;49.824;9.562;2023-03-01T05:57:55;10.70;;;6.78;;
12425;SDS011;6277;49.824;9.562;2023-03-01T06:00:23;10.75;;;7.38;;
12425;SDS011;6277;49.824;9.562;2023-03-01T06:02:49;11.20;;;7.32;;
12425;SDS011;6277;49.824;9.562;2023-03-01T06:05:17;12.00;;;7.70;;
12425;SDS011;6277;49.824;9.562;2023-03-01T06:07:43;11.20;;;7.35;;
12425;SDS011;6277;49.824;9.562;2023-03-01T06:10:09;11.20;;;7.80;;
12425;SDS011;6277;49.824;9.562;2023-03-01T06:12:36;11.07;;;7.50;;
12425;SDS011;6277;49.824;9.562;2023-03-01T06:15:02;12.05;;;7.25;;
12425;SDS011;6277;49.824;9.562;2023-03-01T06:17:29;18.02;;;7.88;;
12425;SDS011;6277;49.824;9.562;2023-03-01T06:19:56;12.18;;;7.07;;
12425;SDS011;6277;49.824;9.562;2023-03-01T06:22:23;10.40;;;7.05;;
12425;SDS011;6277;49.824;9.562;2023-03-01T06:24:48;11.10;;;7.28;;
12425;SDS011;6277;49.824;9.562;2023-03-01T06:27:14;10.27;;;7.20;;
12425;SDS011;6277;49.824;9.562;2023-03-01T06:29:39;11.82;;;7.47;;
12425;SDS011;6277;49.824;9.562;2023-03-01T06:32:05;9.23;;;6.45;;
12425;SDS011;6277;49.824;9.562;2023-03-01T06:34:30;10.98;;;6.80;;
12425;SDS011;6277;49.824;9.562;2023-03-01T06:36:57;10.05;;;6.80;;
12425;SDS011;6277;49.824;9.562;2023-03-01T06:39:22;9.93;;;6.95;;
12425;SDS011;6277;49.824;9.562;2023-03-01T06:41:48;10.57;;;6.85;;
12425;SDS011;6277;49.824;9.562;2023-03-01T06:44:13;11.98;;;7.18;;
12425;SDS011;6277;49.824;9.562;2023-03-01T06:46:39;9.68;;;7.20;;
12425;SDS011;6277;49.824;9.562;2023-03-01T06:49:05;10.48;;;6.72;;
12425;SDS011;6277;49.824;9.562;2023-03-01T06:51:34;12.27;;;7.38;;
12425;SDS011;6277;49.824;9.562;2023-03-01T06:54:00;11.18;;;7.47;;
12425;SDS011;6277;49.824;9.562;2023-03-01T06:56:26;12.63;;;7.78;;
12425;SDS011;6277;49.824;9.562;2023-03-01T06:58:51;9.60;;;6.95;;
12425;SDS011;6277;49.824;9.562;2023-03-01T07:01:17;13.88;;;7.53;;
12425;SDS011;6277;49.824;9.562;2023-03-01T07:03:42;10.85;;;7.60;;
12425;SDS011;6277;49.824;9.562;2023-03-01T07:06:09;11.55;;;7.18;;
12425;SDS011;6277;49.824;9.562;2023-03-01T07:08:34;11.10;;;7.68;;
12425;SDS011;6277;49.824;9.562;2023-03-01T07:11:00;10.73;;;7.15;;
12425;SDS011;6277;49.824;9.562;2023-03-01T07:13:27;11.55;;;7.50;;
12425;SDS011;6277;49.824;9.562;2023-03-01T07:15:53;12.15;;;7.55;;
12425;SDS011;6277;49.824;9.562;2023-03-01T07:18:18;11.50;;;7.13;;
12425;SDS011;6277;49.824;9.562;2023-03-01T07:20:44;10.55;;;7.30;;
12425;SDS011;6277;49.824;9.562;2023-03-01T07:23:10;10.55;;;8.15;;
12425;SDS011;6277;49.824;9.562;2023-03-01T07:25:35;12.88;;;7.93;;
12425;SDS011;6277;49.824;9.562;2023-03-01T07:28:01;11.57;;;7.78;;
12425;SDS011;6277;49.824;9.562;2023-03-01T07:30:26;12.98;;;7.90;;
12425;SDS011;6277;49.824;9.562;2023-03-01T07:32:53;12.35;;;7.55;;
12425;SDS011;6277;49.824;9.562;2023-03-01T07:35:20;10.52;;;7.30;;
12425;SDS011;6277;49.824;9.562;2023-03-01T07:37:45;12.40;;;8.10;;
12425;SDS011;6277;49.824;9.562;2023-03-01T07:40:11;12.68;;;7.85;;
12425;SDS011;6277;49.824;9.562;2023-03-01T07:42:37;11.25;;;7.65;;
12425;SDS011;6277;49.824;9.562;2023-03-01T07:45:03;13.68;;;7.95;;
12425;SDS011;6277;49.824;9.562;2023-03-01T07:47:30;13.57;;;8.00;;
12425;SDS011;6277;49.824;9.562;2023-03-01T07:49:56;13.55;;;8.52;;
12425;SDS011;6277;49.824;9.562;2023-03-01T07:52:21;11.15;;;7.78;;
12425;SDS011;6277;49.824;9.562;2023-03-01T07:54:47;12.60;;;7.70;;
12425;SDS011;6277;49.824;9.562;2023-03-01T07:57:13;11.98;;;7.72;;
12425;SDS011;6277;49.824;9.562;2023-03-01T07:59:38;11.15;;;7.75;;
12425;SDS011;6277;49.824;9.562;2023-03-01T08:02:04;11.52;;;7.80;;
12425;SDS011;6277;49.824;9.562;2023-03-01T08:04:29;12.43;;;8.18;;
12425;SDS011;6277;49.824;9.562;2023-03-01T08:06:55;12.68;;;7.75;;
12425;SDS011;6277;49.824;9.562;2023-03-01T08:09:21;13.73;;;8.23;;
12425;SDS011;6277;49.824;9.562;2023-03-01T08:11:46;11.93;;;8.02;;
12425;SDS011;6277;49.824;9.562;2023-03-01T08:14:12;12.27;;;7.93;;
12425;SDS011;6277;49.824;9.562;2023-03-01T08:16:37;13.43;;;8.30;;
12425;SDS011;6277;49.824;9.562;2023-03-01T08:19:07;13.23;;;7.80;;
12425;SDS011;6277;49.824;9.562;2023-03-01T08:21:35;13.45;;;8.13;;
12425;SDS011;6277;49.824;9.562;2023-03-01T08:24:01;14.32;;;8.27;;
12425;SDS011;6277;49.824;9.562;2023-03-01T08:26:28;13.05;;;8.27;;
12425;SDS011;6277;49.824;9.562;2023-03-01T08:28:53;12.65;;;8.38;;
12425;SDS011;6277;49.824;9.562;2023-03-01T08:31:28;11.70;;;8.20;;
12425;SDS011;6277;49.824;9.562;2023-03-01T08:33:57;12.20;;;8.38;;
12425;SDS011;6277;49.824;9.562;2023-03-01T08:36:29;14.75;;;9.02;;
12425;SDS011;6277;49.824;9.562;2023-03-01T08:38:56;12.80;;;8.73;;
12425;SDS011;6277;49.824;9.562;2023-03-01T08:41:21;14.20;;;9.40;;
12425;SDS011;6277;49.824;9.562;2023-03-01T08:43:47;15.88;;;10.00;;
12425;SDS011;6277;49.824;9.562;2023-03-01T08:46:13;13.43;;;9.25;;
12425;SDS011;6277;49.824;9.562;2023-03-01T08:48:39;11.63;;;9.15;;
12425;SDS011;6277;49.824;9.562;2023-03-01T08:51:12;15.60;;;9.35;;
12425;SDS011;6277;49.824;9.562;2023-03-01T08:53:40;12.80;;;8.93;;
12425;SDS011;6277;49.824;9.562;2023-03-01T08:56:06;14.38;;;9.30;;
12425;SDS011;6277;49.824;9.562;2023-03-01T08:58:33;13.35;;;9.65;;
12425;SDS011;6277;49.824;9.562;2023-03-01T09:00:58;12.88;;;8.98;;
12425;SDS011;6277;49.824;9.562;2023-03-01T09:03:24;13.90;;;9.48;;
12425;SDS011;6277;49.824;9.562;2023-03-01T09:05:51;12.02;;;8.48;;
12425;SDS011;6277;49.824;9.562;2023-03-01T09:08:17;14.90;;;9.20;;
12425;SDS011;6277;49.824;9.562;2023-03-01T09:10:43;13.73;;;9.55;;
12425;SDS011;6277;49.824;9.562;2023-03-01T09:13:09;14.27;;;9.60;;
12425;SDS011;6277;49.824;9.562;2023-03-01T09:15:38;17.60;;;9.80;;
12425;SDS011;6277;49.824;9.562;2023-03-01T09:18:04;14.35;;;9.55;;
12425;SDS011;6277;49.824;9.562;2023-03-01T09:20:31;14.10;;;10.13;;
12425;SDS011;6277;49.824;9.562;2023-03-01T09:22:57;15.07;;;10.02;;
12425;SDS011;6277;49.824;9.562;2023-03-01T09:25:23;14.07;;;9.38;;
12425;SDS011;6277;49.824;9.562;2023-03-01T09:27:52;14.57;;;9.50;;
12425;SDS011;6277;49.824;9.562;2023-03-01T09:30:18;14.88;;;10.00;;
12425;SDS011;6277;49.824;9.562;2023-03-01T09:32:44;14.45;;;9.85;;
12425;SDS011;6277;49.824;9.562;2023-03-01T09:35:10;14.43;;;10.05;;
12425;SDS011;6277;49.824;9.562;2023-03-01T09:37:37;14.73;;;9.77;;
12425;SDS011;6277;49.824;9.562;2023-03-01T09:40:04;14.13;;;9.73;;
12425;SDS011;6277;49.824;9.562;2023-03-01T09:42:32;13.73;;;9.75;;
12425;SDS011;6277;49.824;9.562;2023-03-01T09:45:00;15.07;;;9.50;;
12425;SDS011;6277;49.824;9.562;2023-03-01T09:47:35;14.98;;;9.88;;
12425;SDS011;6277;49.824;9.562;2023-03-01T09:50:03;14.90;;;9.98;;
12425;SDS011;6277;49.824;9.562;2023-03-01T09:55:10;14.05;;;9.02;;
12425;SDS011;6277;49.824;9.562;2023-03-01T09:57:48;15.00;;;9.57;;
12425;SDS011;6277;49.824;9.562;2023-03-01T10:00:22;14.55;;;9.48;;
12425;SDS011;6277;49.824;9.562;2023-03-01T10:02:59;14.02;;;9.40;;
12425;SDS011;6277;49.824;9.562;2023-03-01T10:11:01;14.68;;;9.10;;
12425;SDS011;6277;49.824;9.562;2023-03-01T10:19:02;15.05;;;10.20;;
12425;SDS011;6277;49.824;9.562;2023-03-01T10:21:28;13.77;;;9.73;;
12425;SDS011;6277;49.824;9.562;2023-03-01T10:23:57;13.73;;;10.05;;
12425;SDS011;6277;49.824;9.562;2023-03-01T10:26:40;14.20;;;9.60;;
12425;SDS011;6277;49.824;9.562;2023-03-01T10:29:17;13.60;;;9.43;;
12425;SDS011;6277;49.824;9.562;2023-03-01T10:32:09;13.45;;;9.55;;
12425;SDS011;6277;49.824;9.562;2023-03-01T10:34:36;12.13;;;9.15;;
12425;SDS011;6277;49.824;9.562;2023-03-01T10:39:35;13.80;;;9.18;;
12425;SDS011;6277;49.824;9.562;2023-03-01T10:42:01;15.23;;;9.30;;
12425;SDS011;6277;49.824;9.562;2023-03-01T10:44:44;12.20;;;8.93;;
12425;SDS011;6277;49.824;9.562;2023-03-01T10:47:13;13.40;;;9.85;;
12425;SDS011;6277;49.824;9.562;2023-03-01T10:49:39;14.00;;;8.95;;
12425;SDS011;6277;49.824;9.562;2023-03-01T10:52:17;14.13;;;8.93;;
12425;SDS011;6277;49.824;9.562;2023-03-01T10:57:41;13.93;;;9.57;;
12425;SDS011;6277;49.824;9.562;2023-03-01T11:00:18;13.73;;;9.70;;
12425;SDS011;6277;49.824;9.562;2023-03-01T11:03:08;12.20;;;8.77;;
12425;SDS011;6277;49.824;9.562;2023-03-01T11:05:37;12.38;;;9.00;;
12425;SDS011;6277;49.824;9.562;2023-03-01T11:08:14;13.70;;;9.52;;
12425;SDS011;6277;49.824;9.562;2023-03-01T11:10:40;12.95;;;9.27;;
12425;SDS011;6277;49.824;9.562;2023-03-01T11:13:06;12.73;;;9.70;;
12425;SDS011;6277;49.824;9.562;2023-03-01T11:15:33;12.73;;;9.40;;
12425;SDS011;6277;49.824;9.562;2023-03-01T11:18:00;11.68;;;8.75;;
12425;SDS011;6277;49.824;9.562;2023-03-01T11:20:28;14.48;;;9.50;;
12425;SDS011;6277;49.824;9.562;2023-03-01T11:23:03;12.23;;;8.80;;
12425;SDS011;6277;49.824;9.562;2023-03-01T11:25:37;13.40;;;9.55;;
12425;SDS011;6277;49.824;9.562;2023-03-01T11:28:07;12.90;;;8.98;;
12425;SDS011;6277;49.824;9.562;2023-03-01T11:30:50;14.73;;;8.85;;
12425;SDS011;6277;49.824;9.562;2023-03-01T11:33:27;12.60;;;9.13;;
12425;SDS011;6277;49.824;9.562;2023-03-01T11:36:04;13.00;;;9.48;;
12425;SDS011;6277;49.824;9.562;2023-03-01T11:38:32;12.45;;;9.15;;
12425;SDS011;6277;49.824;9.562;2023-03-01T11:43:57;12.30;;;8.88;;
12425;SDS011;6277;49.824;9.562;2023-03-01T11:52:29;13.00;;;8.75;;
12425;SDS011;6277;49.824;9.562;2023-03-01T11:55:12;13.57;;;8.45;;
12425;SDS011;6277;49.824;9.562;2023-03-01T12:00:43;12.13;;;8.50;;
12425;SDS011;6277;49.824;9.562;2023-03-01T12:03:25;12.32;;;8.68;;
12425;SDS011;6277;49.824;9.562;2023-03-01T12:06:20;12.35;;;9.05;;
12425;SDS011;6277;49.824;9.562;2023-03-01T12:36:26;12.35;;;8.60;;
12425;SDS011;6277;49.824;9.562;2023-03-01T12:44:48;12.77;;;9.10;;
12425;SDS011;6277;49.824;9.562;2023-03-01T12:53:28;10.98;;;8.13;;
12425;SDS011;6277;49.824;9.562;2023-03-01T12:56:01;10.85;;;8.13;;
12425;SDS011;6277;49.824;9.562;2023-03-01T13:04:14;12.25;;;8.65;;
12425;SDS011;6277;49.824;9.562;2023-03-01T13:06:55;11.02;;;8.70;;
12425;SDS011;6277;49.824;9.562;2023-03-01T13:17:57;9.50;;;7.22;;
12425;SDS011;6277;49.824;9.562;2023-03-01T13:20:33;8.77;;;6.88;;
12425;SDS011;6277;49.824;9.562;2023-03-01T13:25:59;9.95;;;7.50;;
12425;SDS011;6277;49.824;9.562;2023-03-01T13:30:57;9.38;;;7.22;;
12425;SDS011;6277;49.824;9.562;2023-03-01T13:35:51;10.73;;;7.10;;
12425;SDS011;6277;49.824;9.562;2023-03-01T13:41:06;10.93;;;7.63;;
12425;SDS011;6277;49.824;9.562;2023-03-01T13:43:34;9.90;;;7.40;;
12425;SDS011;6277;49.824;9.562;2023-03-01T13:46:08;9.38;;;7.00;;
12425;SDS011;6277;49.824;9.562;2023-03-01T13:48:35;10.82;;;7.43;;
12425;SDS011;6277;49.824;9.562;2023-03-01T13:51:12;9.32;;;7.07;;
12425;SDS011;6277;49.824;9.562;2023-03-01T13:53:42;9.45;;;7.47;;
12425;SDS011;6277;49.824;9.562;2023-03-01T13:56:19;9.32;;;6.93;;
12425;SDS011;6277;49.824;9.562;2023-03-01T13:58:50;10.10;;;6.88;;
12425;SDS011;6277;49.824;9.562;2023-03-01T14:01:33;10.65;;;7.13;;
12425;SDS011;6277;49.824;9.562;2023-03-01T14:04:00;8.52;;;6.55;;
12425;SDS011;6277;49.824;9.562;2023-03-01T14:06:29;10.68;;;7.20;;
12425;SDS011;6277;49.824;9.562;2023-03-01T14:09:10;9.68;;;7.32;;
12425;SDS011;6277;49.824;9.562;2023-03-01T14:19:39;8.77;;;6.88;;
12425;SDS011;6277;49.824;9.562;2023-03-01T14:22:22;9.30;;;7.15;;
12425;SDS011;6277;49.824;9.562;2023-03-01T14:24:50;9.52;;;6.70;;
12425;SDS011;6277;49.824;9.562;2023-03-01T14:27:20;7.80;;;6.22;;
12425;SDS011;6277;49.824;9.562;2023-03-01T14:29:57;9.07;;;6.35;;
12425;SDS011;6277;49.824;9.562;2023-03-01T14:32:27;8.55;;;6.32;;
12425;SDS011;6277;49.824;9.562;2023-03-01T14:34:54;7.63;;;6.43;;
12425;SDS011;6277;49.824;9.562;2023-03-01T14:39:54;6.95;;;5.40;;
12425;SDS011;6277;49.824;9.562;2023-03-01T14:42:21;9.05;;;5.53;;
12425;SDS011;6277;49.824;9.562;2023-03-01T14:44:50;7.97;;;5.65;;
12425;SDS011;6277;49.824;9.562;2023-03-01T14:47:27;7.40;;;5.40;;
12425;SDS011;6277;49.824;9.562;2023-03-01T14:49:59;7.90;;;5.45;;
12425;SDS011;6277;49.824;9.562;2023-03-01T14:52:44;7.03;;;5.32;;
12425;SDS011;6277;49.824;9.562;2023-03-01T14:55:16;8.23;;;5.85;;
12425;SDS011;6277;49.824;9.562;2023-03-01T14:57:47;8.15;;;5.53;;
12425;SDS011;6277;49.824;9.562;2023-03-01T15:00:18;8.45;;;5.43;;
12425;SDS011;6277;49.824;9.562;2023-03-01T15:02:50;8.25;;;5.68;;
12425;SDS011;6277;49.824;9.562;2023-03-01T15:05:18;7.55;;;5.50;;
12425;SDS011;6277;49.824;9.562;2023-03-01T15:07:50;6.60;;;5.18;;
12425;SDS011;6277;49.824;9.562;2023-03-01T15:10:37;10.50;;;5.20;;
12425;SDS011;6277;49.824;9.562;2023-03-01T15:13:14;6.95;;;4.97;;
12425;SDS011;6277;49.824;9.562;2023-03-01T15:15:47;7.50;;;4.95;;
12425;SDS011;6277;49.824;9.562;2023-03-01T15:18:22;7.28;;;4.95;;
12425;SDS011;6277;49.824;9.562;2023-03-01T15:20:52;7.55;;;5.07;;
12425;SDS011;6277;49.824;9.562;2023-03-01T15:23:21;6.85;;;5.18;;
12425;SDS011;6277;49.824;9.562;2023-03-01T15:25:49;7.63;;;5.18;;
12425;SDS011;6277;49.824;9.562;2023-03-01T15:28:21;6.43;;;4.75;;
12425;SDS011;6277;49.824;9.562;2023-03-01T15:30:54;7.57;;;5.10;;
12425;SDS011;6277;49.824;9.562;2023-03-01T15:35:52;6.72;;;5.20;;
12425;SDS011;6277;49.824;9.562;2023-03-01T15:41:00;7.88;;;4.97;;
12425;SDS011;6277;49.824;9.562;2023-03-01T15:43:44;6.63;;;5.03;;
12425;SDS011;6277;49.824;9.562;2023-03-01T15:46:15;7.15;;;5.18;;
12425;SDS011;6277;49.824;9.562;2023-03-01T15:48:48;7.15;;;4.88;;
12425;SDS011;6277;49.824;9.562;2023-03-01T15:51:17;7.13;;;5.30;;
12425;SDS011;6277;49.824;9.562;2023-03-01T15:53:52;5.78;;;4.40;;
12425;SDS011;6277;49.824;9.562;2023-03-01T15:56:18;6.15;;;4.97;;
12425;SDS011;6277;49.824;9.562;2023-03-01T15:58:44;6.47;;;5.10;;
12425;SDS011;6277;49.824;9.562;2023-03-01T16:01:13;8.93;;;5.18;;
12425;SDS011;6277;49.824;9.562;2023-03-01T16:03:41;7.50;;;4.93;;
12425;SDS011;6277;49.824;9.562;2023-03-01T16:06:08;6.60;;;5.05;;
12425;SDS011;6277;49.824;9.562;2023-03-01T16:08:35;6.45;;;4.85;;
12425;SDS011;6277;49.824;9.562;2023-03-01T16:11:00;7.15;;;4.93;;
12425;SDS011;6277;49.824;9.562;2023-03-01T16:13:29;6.38;;;4.47;;
12425;SDS011;6277;49.824;9.562;2023-03-01T16:15:56;7.28;;;4.68;;
12425;SDS011;6277;49.824;9.562;2023-03-01T16:18:22;7.55;;;4.75;;
12425;SDS011;6277;49.824;9.562;2023-03-01T16:20:47;7.80;;;5.28;;
12425;SDS011;6277;49.824;9.562;2023-03-01T16:23:14;6.82;;;5.03;;
12425;SDS011;6277;49.824;9.562;2023-03-01T16:25:40;7.53;;;4.95;;
12425;SDS011;6277;49.824;9.562;2023-03-01T16:28:05;7.78;;;5.35;;
12425;SDS011;6277;49.824;9.562;2023-03-01T16:30:34;7.32;;;4.85;;
12425;SDS011;6277;49.824;9.562;2023-03-01T16:33:00;6.18;;;4.57;;
12425;SDS011;6277;49.824;9.562;2023-03-01T16:35:26;8.57;;;5.28;;
12425;SDS011;6277;49.824;9.562;2023-03-01T16:37:51;6.95;;;5.45;;
12425;SDS011;6277;49.824;9.562;2023-03-01T16:40:20;7.38;;;5.05;;
12425;SDS011;6277;49.824;9.562;2023-03-01T16:42:48;6.82;;;5.10;;
12425;SDS011;6277;49.824;9.562;2023-03-01T16:45:14;7.75;;;5.63;;
12425;SDS011;6277;49.824;9.562;2023-03-01T16:47:40;7.55;;;5.50;;
12425;SDS011;6277;49.824;9.562;2023-03-01T16:50:06;8.77;;;5.95;;
12425;SDS011;6277;49.824;9.562;2023-03-01T16:52:32;8.27;;;5.75;;
12425;SDS011;6277;49.824;9.562;2023-03-01T16:54:58;6.55;;;4.72;;
12425;SDS011;6277;49.824;9.562;2023-03-01T16:57:24;8.25;;;5.22;;
12425;SDS011;6277;49.824;9.562;2023-03-01T16:59:51;6.90;;;5.03;;
12425;SDS011;6277;49.824;9.562;2023-03-01T17:02:18;8.43;;;5.80;;
12425;SDS011;6277;49.824;9.562;2023-03-01T17:04:44;8.52;;;5.72;;